createdAt,value
2019-05-21T00:01:03.667Z,49.61
2019-05-21T00:04:09.318Z,50.13
2019-05-21T00:07:15.238Z,49.38
2019-05-21T00:10:21.093Z,48.77
2019-05-21T00:13:26.776Z,48.65
2019-05-21T00:16:32.501Z,48.86
2019-05-21T00:19:38.192Z,48.91
2019-05-21T00:22:43.917Z,49.48
2019-05-21T00:25:50.840Z,49.53
2019-05-21T00:29:31.849Z,49.30
2019-05-21T00:33:13.234Z,49.49
2019-05-21T00:36:57.907Z,49.95
2019-05-21T00:40:39.846Z,50.05
2019-05-21T00:43:51.414Z,50.44
2019-05-21T00:46:57.230Z,50.90
2019-05-21T00:50:02.930Z,51.14
2019-05-21T00:53:08.696Z,50.87
2019-05-21T00:56:14.379Z,50.91
2019-05-21T00:59:20.114Z,50.65
2019-05-21T01:02:25.828Z,50.14
2019-05-21T01:05:31.566Z,49.97
2019-05-21T01:08:37.283Z,49.80
2019-05-21T01:11:43.095Z,49.67
2019-05-21T01:14:48.762Z,49.59
2019-05-21T01:17:54.482Z,49.47
2019-05-21T01:21:00.151Z,49.99
2019-05-21T01:24:06.195Z,49.59
2019-05-21T01:27:11.868Z,49.81
2019-05-21T01:30:17.746Z,49.54
2019-05-21T01:33:23.462Z,50.18
2019-05-21T01:36:29.319Z,51.44
2019-05-21T01:39:35.042Z,50.62
2019-05-21T01:42:40.757Z,50.27
2019-05-21T01:45:47.423Z,50.51
2019-05-21T01:48:53.089Z,52.78
2019-05-21T01:51:58.796Z,53.48
2019-05-21T01:55:04.640Z,54.88
2019-05-21T01:58:10.398Z,55.18
2019-05-21T02:01:16.088Z,53.61
2019-05-21T02:04:21.826Z,52.55
2019-05-21T02:07:27.487Z,51.85
2019-05-21T02:10:34.294Z,52.00
2019-05-21T02:13:40.009Z,52.24
2019-05-21T02:16:45.707Z,52.93
2019-05-21T02:19:51.494Z,54.02
2019-05-21T02:22:57.624Z,54.28
2019-05-21T02:26:03.388Z,53.93
2019-05-21T02:29:09.071Z,53.80
2019-05-21T02:32:14.764Z,53.91
2019-05-21T02:35:20.447Z,52.95
2019-05-21T02:38:26.146Z,52.78
2019-05-21T02:41:32.009Z,52.93
2019-05-21T02:44:37.750Z,53.26
2019-05-21T02:47:43.431Z,53.44
2019-05-21T02:50:49.281Z,53.32
2019-05-21T02:53:54.946Z,53.87
2019-05-21T02:57:00.777Z,53.95
2019-05-21T03:00:08.893Z,53.53
2019-05-21T03:03:15.460Z,53.65
2019-05-21T03:06:21.140Z,53.21
2019-05-21T03:09:26.854Z,52.53
2019-05-21T03:12:32.641Z,52.47
2019-05-21T03:15:38.385Z,51.96
2019-05-21T03:18:44.302Z,52.21
2019-05-21T03:21:49.963Z,51.86
2019-05-21T03:24:55.673Z,51.42
2019-05-21T03:28:01.426Z,51.44
2019-05-21T03:31:07.294Z,50.70
2019-05-21T03:34:13.055Z,50.48
2019-05-21T03:37:18.844Z,50.68
2019-05-21T03:40:24.652Z,49.93
2019-05-21T03:43:30.386Z,51.01
2019-05-21T03:46:36.260Z,50.98
2019-05-21T03:49:42.987Z,49.48
2019-05-21T03:52:48.872Z,48.87
2019-05-21T03:55:54.762Z,48.51
2019-05-21T03:59:00.478Z,48.29
2019-05-21T04:02:07.139Z,48.40
2019-05-21T04:05:12.877Z,47.55
2019-05-21T04:08:18.503Z,48.05
2019-05-21T04:11:24.222Z,47.60
2019-05-21T04:14:33.954Z,46.90
2019-05-21T04:17:49.335Z,46.66
2019-05-21T04:20:55.020Z,45.69
2019-05-21T04:24:00.782Z,45.47
2019-05-21T04:27:06.652Z,47.02
2019-05-21T04:30:12.449Z,45.32
2019-05-21T04:33:18.118Z,45.04
2019-05-21T04:36:23.825Z,44.68
2019-05-21T04:39:29.606Z,44.37
2019-05-21T04:42:35.320Z,43.88
2019-05-21T04:45:41.069Z,44.02
2019-05-21T04:48:46.720Z,43.72
2019-05-21T04:51:52.395Z,43.42
2019-05-21T04:54:58.037Z,44.13
2019-05-21T04:58:03.767Z,43.85
2019-05-21T05:01:09.441Z,44.57
2019-05-21T05:04:20.977Z,45.58
2019-05-21T05:07:28.115Z,44.16
2019-05-21T05:10:29.943Z,44.24
2019-05-21T05:13:35.656Z,44.85
2019-05-21T05:16:41.314Z,44.83
2019-05-21T05:19:47.081Z,44.84
2019-05-21T05:22:52.752Z,43.83
2019-05-21T05:25:58.471Z,43.31
2019-05-21T05:29:04.256Z,42.84
2019-05-21T05:32:09.977Z,42.83
2019-05-21T05:35:15.936Z,43.41
2019-05-21T05:38:21.651Z,47.00
2019-05-21T05:41:37.865Z,48.35
2019-05-21T05:44:43.534Z,47.63
2019-05-21T05:47:52.108Z,45.87
2019-05-21T05:51:01.954Z,44.07
2019-05-21T05:54:07.945Z,42.56
2019-05-21T05:57:16.412Z,43.12
2019-05-21T06:00:22.641Z,42.69
2019-05-21T06:03:28.346Z,43.25
2019-05-21T06:06:34.129Z,43.08
2019-05-21T06:09:39.914Z,43.79
2019-05-21T06:12:50.172Z,41.87
2019-05-21T06:15:57.555Z,40.71
2019-05-21T06:19:03.342Z,39.63
2019-05-21T06:22:11.701Z,39.45
2019-05-21T06:25:22.932Z,39.26
2019-05-21T06:28:28.811Z,39.24
2019-05-21T06:31:35.504Z,38.56
2019-05-21T06:34:41.205Z,37.45
2019-05-21T06:37:46.870Z,37.31
2019-05-21T06:40:52.543Z,36.83
2019-05-21T06:43:58.345Z,36.06
2019-05-21T06:47:06.712Z,35.59
2019-05-21T06:50:12.550Z,36.10
2019-05-21T06:53:18.206Z,36.28
2019-05-21T06:56:26.578Z,37.81
2019-05-21T06:59:32.231Z,36.97
2019-05-21T07:02:37.970Z,37.44
2019-05-21T07:05:57.495Z,35.90
2019-05-21T07:08:51.139Z,35.74
2019-05-21T07:11:56.849Z,35.72
2019-05-21T07:15:02.603Z,34.93
2019-05-21T07:18:08.368Z,34.47
2019-05-21T07:21:14.263Z,33.89
2019-05-21T07:24:20.065Z,33.81
2019-05-21T07:27:25.801Z,32.17
2019-05-21T07:30:31.707Z,32.45
2019-05-21T07:33:37.590Z,32.40
2019-05-21T07:36:43.388Z,31.88
2019-05-21T07:39:52.836Z,31.03
2019-05-21T07:42:58.579Z,31.44
2019-05-21T07:46:04.278Z,31.43
2019-05-21T07:49:10.006Z,31.74
2019-05-21T07:52:15.681Z,31.62
2019-05-21T07:55:21.421Z,31.73
2019-05-21T07:58:33.194Z,31.60
2019-05-21T08:01:38.924Z,31.92
2019-05-21T08:04:44.605Z,29.75
2019-05-21T08:07:50.331Z,28.60
2019-05-21T08:10:56.059Z,29.00
2019-05-21T08:14:01.796Z,30.11
2019-05-21T08:17:07.729Z,30.03
2019-05-21T08:20:14.230Z,28.96
2019-05-21T08:23:19.974Z,29.59
2019-05-21T08:26:25.655Z,29.36
2019-05-21T08:29:31.668Z,30.67
2019-05-21T08:32:38.653Z,29.42
2019-05-21T08:35:45.533Z,28.72
2019-05-21T08:38:51.238Z,28.77
2019-05-21T08:41:56.976Z,29.25
2019-05-21T08:45:03.806Z,30.32
2019-05-21T08:48:09.892Z,29.40
2019-05-21T08:51:15.821Z,29.42
2019-05-21T08:54:40.348Z,29.69
2019-05-21T08:58:05.085Z,30.36
2019-05-21T09:00:53.621Z,29.95
2019-05-21T09:04:01.881Z,30.47
2019-05-21T09:07:07.647Z,29.13
2019-05-21T09:10:16.233Z,29.33
2019-05-21T09:13:22.002Z,29.11
2019-05-21T09:16:27.803Z,28.98
2019-05-21T09:19:36.379Z,29.70
2019-05-21T09:22:41.051Z,29.82
2019-05-21T09:25:49.579Z,28.64
2019-05-21T09:28:54.307Z,28.92
2019-05-21T09:31:59.960Z,29.29
2019-05-21T09:35:06.499Z,30.89
2019-05-21T09:38:12.256Z,29.95
2019-05-21T09:41:18.092Z,30.15
2019-05-21T09:44:23.981Z,29.69
2019-05-21T09:47:29.928Z,29.69
2019-05-21T09:50:35.685Z,29.51
2019-05-21T09:53:41.408Z,29.41
2019-05-21T09:56:47.180Z,28.37
2019-05-21T09:59:59.694Z,28.37
2019-05-21T10:03:07.944Z,28.04
2019-05-21T10:06:13.644Z,28.22
2019-05-21T10:09:20.425Z,28.93
2019-05-21T10:12:26.219Z,28.88
2019-05-21T10:15:33.171Z,29.61
2019-05-21T10:18:38.960Z,27.96
2019-05-21T10:21:44.733Z,29.51
2019-05-21T10:24:50.412Z,30.04
2019-05-21T10:27:56.070Z,31.12
2019-05-21T10:31:01.808Z,29.28
2019-05-21T10:34:07.519Z,29.29
2019-05-21T10:37:13.290Z,28.84
2019-05-21T10:40:19.351Z,29.56
2019-05-21T10:43:25.111Z,28.73
2019-05-21T10:46:31.183Z,28.34
2019-05-21T10:49:36.932Z,29.42
2019-05-21T10:52:42.646Z,29.63
2019-05-21T10:55:48.428Z,28.97
2019-05-21T10:58:54.204Z,28.74
2019-05-21T11:02:24.727Z,27.68
2019-05-21T11:05:34.449Z,27.57
2019-05-21T11:08:40.414Z,27.55
2019-05-21T11:11:48.618Z,28.21
2019-05-21T11:14:54.458Z,27.79
2019-05-21T11:18:10.342Z,27.13
2019-05-21T11:21:08.379Z,26.86
2019-05-21T11:24:15.085Z,26.82
2019-05-21T11:27:20.883Z,26.51
2019-05-21T11:30:26.641Z,26.54
2019-05-21T11:33:32.339Z,26.45
2019-05-21T11:36:38.145Z,26.60
2019-05-21T11:39:47.611Z,26.78
2019-05-21T11:42:53.505Z,25.71
2019-05-21T11:46:03.019Z,26.41
2019-05-21T11:49:12.444Z,25.56
2019-05-21T11:52:18.663Z,25.53
2019-05-21T11:55:24.469Z,26.53
2019-05-21T11:58:41.070Z,27.22
2019-05-21T12:01:46.946Z,28.21
2019-05-21T12:04:52.690Z,28.75
2019-05-21T12:07:58.506Z,28.82
2019-05-21T12:11:05.455Z,28.65
2019-05-21T12:14:11.112Z,28.69
2019-05-21T12:17:17.020Z,27.78
2019-05-21T12:20:36.153Z,27.08
2019-05-21T12:23:30.379Z,26.34
2019-05-21T12:26:37.262Z,26.06
2019-05-21T12:29:43.003Z,25.92
2019-05-21T12:32:48.661Z,25.67
2019-05-21T12:35:54.425Z,25.92
2019-05-21T12:39:13.669Z,26.66
2019-05-21T12:42:07.791Z,26.20
2019-05-21T12:45:13.885Z,25.98
2019-05-21T12:48:24.005Z,25.93
2019-05-21T12:51:29.876Z,26.40
2019-05-21T12:54:39.360Z,26.87
2019-05-21T12:57:45.031Z,26.67
2019-05-21T13:00:50.990Z,26.70
2019-05-21T13:03:56.695Z,27.35
2019-05-21T13:07:02.480Z,27.59
2019-05-21T13:10:09.257Z,27.71
2019-05-21T13:13:22.841Z,27.90
2019-05-21T13:16:28.517Z,27.19
2019-05-21T13:19:34.177Z,26.48
2019-05-21T13:22:39.914Z,26.36
2019-05-21T13:25:45.801Z,27.36
2019-05-21T13:28:51.549Z,26.73
2019-05-21T13:31:57.225Z,26.66
2019-05-21T13:35:03.413Z,26.43
2019-05-21T13:38:13.549Z,25.69
2019-05-21T13:41:17.967Z,25.80
2019-05-21T13:44:23.671Z,25.77
2019-05-21T13:47:29.445Z,25.84
2019-05-21T13:50:35.105Z,25.96
2019-05-21T13:53:40.774Z,26.29
2019-05-21T13:56:46.435Z,26.03
2019-05-21T13:59:52.155Z,25.52
2019-05-21T14:02:57.876Z,26.22
2019-05-21T14:06:03.698Z,26.94
2019-05-21T14:09:10.087Z,27.23
2019-05-21T14:12:16.489Z,27.13
2019-05-21T14:15:22.419Z,27.29
2019-05-21T14:18:28.076Z,26.76
2019-05-21T14:21:34.180Z,26.30
2019-05-21T14:24:39.859Z,25.64
2019-05-21T14:27:45.969Z,25.06
2019-05-21T14:30:51.588Z,24.50
2019-05-21T14:33:57.393Z,24.31
2019-05-21T14:37:04.492Z,24.73
2019-05-21T14:40:12.126Z,24.49
2019-05-21T14:43:18.229Z,23.97
2019-05-21T14:46:24.060Z,23.99
2019-05-21T14:49:29.896Z,24.16
2019-05-21T14:52:35.578Z,23.78
2019-05-21T14:55:41.450Z,23.26
2019-05-21T14:58:47.130Z,24.71
2019-05-21T15:01:58.195Z,24.48
2019-05-21T15:05:04.955Z,24.69
2019-05-21T15:08:10.749Z,24.89
2019-05-21T15:11:16.641Z,24.97
2019-05-21T15:14:22.504Z,24.80
2019-05-21T15:17:28.237Z,24.56
2019-05-21T15:20:48.275Z,24.46
2019-05-21T15:23:53.973Z,24.47
2019-05-21T15:26:59.722Z,24.84
2019-05-21T15:30:05.930Z,24.84
2019-05-21T15:33:11.744Z,25.03
2019-05-21T15:36:17.447Z,25.24
2019-05-21T15:39:23.115Z,25.27
2019-05-21T15:42:28.998Z,25.80
2019-05-21T15:45:34.933Z,26.49
2019-05-21T15:48:40.664Z,26.40
2019-05-21T15:51:46.489Z,26.16
2019-05-21T15:54:52.206Z,25.78
2019-05-21T15:57:57.929Z,25.44
2019-05-21T16:01:04.831Z,24.05
2019-05-21T16:04:10.496Z,23.85
2019-05-21T16:07:16.267Z,23.36
2019-05-21T16:10:22.070Z,23.45
2019-05-21T16:13:27.851Z,23.12
2019-05-21T16:16:33.535Z,23.07
2019-05-21T16:19:39.374Z,22.80
2019-05-21T16:22:45.063Z,22.81
2019-05-21T16:25:50.835Z,22.72
2019-05-21T16:28:56.569Z,23.31
2019-05-21T16:32:02.389Z,23.45
2019-05-21T16:35:11.643Z,23.46
2019-05-21T16:38:17.486Z,23.79
2019-05-21T16:41:24.782Z,23.94
2019-05-21T16:44:30.809Z,24.31
2019-05-21T16:47:45.920Z,24.19
2019-05-21T16:50:44.195Z,24.03
2019-05-21T16:53:49.951Z,24.44
2019-05-21T16:56:57.842Z,24.80
2019-05-21T17:00:03.310Z,24.96
2019-05-21T17:03:10.238Z,25.70
2019-05-21T17:06:15.967Z,25.76
2019-05-21T17:09:21.656Z,26.11
2019-05-21T17:12:27.420Z,26.60
2019-05-21T17:15:33.368Z,26.80
2019-05-21T17:18:39.051Z,26.76
2019-05-21T17:21:45.294Z,27.21
2019-05-21T17:24:52.066Z,27.59
2019-05-21T17:27:57.753Z,27.67
2019-05-21T17:31:03.540Z,27.69
2019-05-21T17:34:10.357Z,27.96
2019-05-21T17:37:16.429Z,28.20
2019-05-21T17:40:22.221Z,28.29
2019-05-21T17:43:28.082Z,28.09
2019-05-21T17:46:36.833Z,28.38
2019-05-21T17:49:43.902Z,28.53
2019-05-21T17:52:49.788Z,28.43
2019-05-21T17:55:59.108Z,28.71
2019-05-21T17:59:04.892Z,28.54
2019-05-21T18:02:13.814Z,28.46
2019-05-21T18:05:20.953Z,28.54
2019-05-21T18:08:26.731Z,28.55
2019-05-21T18:11:33.738Z,28.77
2019-05-21T18:14:39.679Z,28.67
2019-05-21T18:17:46.130Z,28.82
2019-05-21T18:20:54.788Z,28.88
2019-05-21T18:24:00.678Z,28.87
2019-05-21T18:27:06.537Z,29.38
2019-05-21T18:30:12.996Z,29.22
2019-05-21T18:33:18.880Z,29.58
2019-05-21T18:36:24.921Z,29.58
2019-05-21T18:39:33.790Z,30.12
2019-05-21T18:42:39.288Z,30.05
2019-05-21T18:45:45.026Z,30.06
2019-05-21T18:48:52.251Z,30.27
2019-05-21T18:51:57.997Z,30.61
2019-05-21T18:55:03.751Z,30.86
2019-05-21T18:58:11.084Z,30.75
2019-05-21T19:01:17.235Z,30.81
2019-05-21T19:04:22.991Z,31.10
2019-05-21T19:07:28.735Z,31.06
2019-05-21T19:10:35.711Z,31.27
2019-05-21T19:13:41.753Z,31.16
2019-05-21T19:16:47.515Z,31.36
2019-05-21T19:19:53.459Z,31.81
2019-05-21T19:23:17.953Z,32.14
2019-05-21T19:26:36.821Z,32.25
2019-05-21T19:29:45.243Z,32.41
2019-05-21T19:33:31.730Z,32.69
2019-05-21T19:36:56.006Z,32.65
2019-05-21T19:44:38.465Z,33.32
2019-05-21T19:55:58.665Z,33.56
2019-05-21T19:59:43.542Z,33.89
2019-05-21T20:11:48.542Z,33.54
2019-05-21T20:15:23.277Z,33.47
2019-05-21T20:20:25.107Z,33.42
2019-05-21T20:27:57.422Z,33.84
2019-05-21T20:31:17.278Z,33.57
2019-05-21T20:35:21.808Z,33.32
2019-05-21T20:46:41.391Z,33.16
2019-05-21T20:50:06.171Z,33.09
2019-05-21T20:53:11.919Z,33.14
2019-05-21T20:56:27.320Z,33.48
2019-05-21T20:59:33.343Z,33.69
2019-05-21T21:02:44.036Z,33.76
2019-05-21T21:05:50.043Z,33.95
2019-05-21T21:08:57.571Z,34.23
2019-05-21T21:12:06.345Z,34.33
2019-05-21T21:15:13.037Z,34.63
2019-05-21T21:18:19.795Z,34.93
2019-05-21T21:21:26.764Z,34.88
2019-05-21T21:24:33.319Z,35.00
2019-05-21T21:27:39.226Z,34.78
2019-05-21T21:30:45.434Z,35.52
2019-05-21T21:33:51.336Z,35.29
2019-05-21T21:40:11.925Z,34.82
2019-05-21T21:43:19.113Z,34.96
2019-05-21T21:46:24.854Z,34.95
2019-05-21T21:49:31.579Z,34.91
2019-05-21T21:52:40.690Z,34.93
2019-05-21T21:55:46.582Z,35.21
2019-05-21T21:58:52.367Z,35.08
2019-05-21T22:02:03.794Z,34.76
2019-05-21T22:05:10.910Z,35.02
2019-05-21T22:08:17.199Z,34.85
2019-05-21T22:11:23.914Z,35.07
2019-05-21T22:14:30.312Z,35.62
2019-05-21T22:17:36.397Z,35.18
2019-05-21T22:20:42.426Z,35.14
2019-05-21T22:23:50.868Z,35.42
2019-05-21T22:26:56.996Z,35.45
2019-05-21T22:30:03.198Z,35.49
2019-05-21T22:33:12.361Z,35.66
2019-05-21T22:36:18.598Z,35.63
2019-05-21T22:39:26.598Z,35.62
2019-05-21T22:42:33.017Z,35.56
2019-05-21T22:45:38.771Z,35.61
2019-05-21T22:48:45.271Z,35.43
2019-05-21T22:51:51.363Z,35.73
2019-05-21T22:54:57.033Z,35.46
2019-05-21T22:58:02.725Z,35.65
2019-05-21T23:01:12.105Z,36.63
2019-05-21T23:04:18.611Z,36.68
2019-05-21T23:07:29.121Z,38.53
2019-05-21T23:10:34.874Z,39.39
2019-05-21T23:13:40.721Z,40.44
2019-05-21T23:16:49.685Z,39.96
2019-05-21T23:20:07.459Z,39.93
2019-05-21T23:23:15.550Z,40.58
2019-05-21T23:26:21.748Z,42.45
2019-05-21T23:29:30.988Z,43.62
2019-05-21T23:32:37.813Z,42.69
2019-05-21T23:35:43.933Z,42.62
2019-05-21T23:38:52.223Z,43.16
2019-05-21T23:41:58.011Z,43.52
2019-05-21T23:45:05.431Z,42.84
2019-05-21T23:48:12.610Z,42.68
2019-05-21T23:51:18.344Z,42.48
2019-05-21T23:54:24.266Z,41.72
2019-05-21T23:57:30.815Z,41.61
